ADDS METAR Data INFO
IDs: Format: Raw Decoded Include TAF

Data at: 0202 UTC 19 Jul 2018

KJWY 190155Z AUTO 13004KT 10SM CLR 35/18 A2987 RMK AO2 T03460184
KJWY 190135Z AUTO 14005KT 10SM CLR 36/17 A2987 RMK AO2 T03560173
KJWY 190115Z AUTO 14006KT 10SM CLR 37/17 A2986 RMK AO2 T03660165
KJWY 190055Z AUTO 15007KT 10SM CLR 37/17 A2986 RMK AO2 T03730167
KJWY 190035Z AUTO 15006KT 10SM CLR 38/17 A2986 RMK AO2 T03800167
KJWY 190015Z AUTO 14007KT 10SM CLR 39/17 A2986 RMK AO2 T03850168
KJWY 182355Z AUTO 15007KT 10SM CLR 39/17 A2986 RMK AO2 T03900168 10409 20378
KJWY 182335Z AUTO 15003KT 10SM CLR 39/17 A2986 RMK AO2 T03940172
KJWY 182315Z AUTO 14003KT 10SM CLR 40/17 A2986 RMK AO2 T03960174
KJWY 182255Z AUTO 15009KT 10SM CLR 40/17 A2987 RMK AO2 T04010171
KJWY 182235Z AUTO 18006KT 10SM SCT100 40/16 A2987 RMK AO2 T04010164
KJWY 182215Z AUTO 17007KT 10SM BKN100 41/17 A2987 RMK AO2 T04050166
KJWY 182155Z AUTO 15007KT 10SM SCT100 40/16 A2988 RMK AO2 T04040163
KJWY 182135Z AUTO 22007KT 10SM CLR 41/16 A2989 RMK AO2 T04070162
KJWY 182115Z AUTO 18006KT 10SM CLR 41/16 A2990 RMK AO2 T04060161
KJWY 182055Z AUTO 21004KT 10SM SCT100 41/16 A2990 RMK AO2 T04060164
KJWY 182035Z AUTO 17007KT 10SM SCT100 41/17 A2991 RMK AO2 T04060167
KJWY 182015Z AUTO 23004KT 10SM CLR 40/17 A2991 RMK AO2 T04010173
KJWY 181955Z AUTO 18004KT 10SM CLR 40/18 A2992 RMK AO2 T04030178
KJWY 181935Z AUTO 26004KT 10SM CLR 39/17 A2993 RMK AO2 T03910167
KJWY 181915Z AUTO 28005KT 10SM CLR 39/16 A2993 RMK AO2 T03920162
KJWY 181855Z AUTO 00000KT 10SM CLR 39/18 A2994 RMK AO2 T03860180
KJWY 181835Z AUTO 24003KT 10SM CLR 39/18 A2995 RMK AO2 T03870180
KJWY 181815Z AUTO 27005KT 10SM CLR 38/19 A2996 RMK AO2 T03810191
KJWY 181755Z AUTO 25004KT 10SM CLR 38/20 A2996 RMK AO2 T03770197 10378 20262
KJWY 181735Z AUTO 22006KT 10SM CLR 37/20 A2997 RMK AO2 T03690198
KJWY 181715Z AUTO 22006KT 10SM CLR 36/20 A2998 RMK AO2 T03640198
KJWY 181655Z AUTO 21008KT 10SM CLR 36/20 A2998 RMK AO2 T03570203
KJWY 181635Z AUTO 21010KT 10SM CLR 35/20 A2999 RMK AO2 T03540204
KJWY 181615Z AUTO 22012KT 10SM CLR 35/21 A2999 RMK AO2 T03500205
KJWY 181555Z AUTO 23009KT 10SM CLR 33/21 A2999 RMK AO2 T03340207
KJWY 181535Z AUTO 24006KT 10SM CLR 33/21 A2999 RMK AO2 T03260213
KJWY 181515Z AUTO 21010G15KT 10SM CLR 32/22 A3000 RMK AO2 T03220219
KJWY 181455Z AUTO 22008KT 10SM CLR 31/22 A3000 RMK AO2 T03090221
KJWY 181435Z AUTO 22008KT 10SM CLR 29/22 A3000 RMK AO2 T02940222
KJWY 181415Z AUTO 23011KT 10SM CLR 29/22 A3000 RMK AO2 T02850219
KJWY 181355Z AUTO 22007KT 10SM CLR 28/22 A3001 RMK AO2 T02810222
KJWY 181335Z AUTO 21009KT 10SM CLR 28/22 A3001 RMK AO2 T02790221
KJWY 181315Z AUTO 21008KT 10SM CLR 27/22 A3001 RMK AO2 T02720220
KJWY 181255Z AUTO 21007KT 10SM CLR 27/22 A3001 RMK AO2 T02700218
KJWY 181235Z AUTO 21006KT 10SM CLR 27/22 A3000 RMK AO2 T02670217
KJWY 181215Z AUTO 20008KT 10SM CLR 27/22 A3000 RMK AO2 T02660216
KJWY 181155Z AUTO 19008KT 10SM CLR 26/22 A3000 RMK AO2 T02630215 10291 20262
KJWY 181135Z AUTO 20006KT 10SM CLR 27/21 A2999 RMK AO2 T02650213
KJWY 181115Z AUTO 20008KT 10SM CLR 27/21 A2999 RMK AO2 T02650212
KJWY 181055Z AUTO 21007KT 10SM CLR 27/21 A2998 RMK AO2 T02670213
KJWY 181035Z AUTO 19006KT 10SM CLR 27/21 A2998 RMK AO2 T02700212
KJWY 181015Z AUTO 20006KT 10SM CLR 27/21 A2998 RMK AO2 T02720212
KJWY 180955Z AUTO 21007KT 10SM CLR 27/21 A2998 RMK AO2 T02730211
KJWY 180935Z AUTO 21007KT 10SM CLR 28/21 A2998 RMK AO2 T02750211
KJWY 180915Z AUTO 20008KT 10SM CLR 28/21 A2998 RMK AO2 T02770210
KJWY 180855Z AUTO 20008KT 10SM CLR 28/21 A2998 RMK AO2 T02780208
KJWY 180835Z AUTO 20007KT 10SM CLR 28/21 A2997 RMK AO2 T02760205
KJWY 180815Z AUTO 19006KT 10SM CLR 28/20 A2997 RMK AO2 T02770203
KJWY 180755Z AUTO 18006KT 10SM CLR 28/20 A2998 RMK AO2 T02800201
KJWY 180735Z AUTO 19006KT 10SM CLR 28/20 A2998 RMK AO2 T02810200
KJWY 180715Z AUTO 18006KT 10SM CLR 28/20 A2998 RMK AO2 T02840197
KJWY 180655Z AUTO 18008KT 10SM CLR 29/20 A2998 RMK AO2 T02880195
KJWY 180635Z AUTO 19008KT 10SM CLR 29/19 A2998 RMK AO2 T02910194
KJWY 180615Z AUTO 18008KT 10SM CLR 29/19 A2998 RMK AO2 T02870188
KJWY 180555Z AUTO 17007KT 10SM CLR 29/19 A2999 RMK AO2 T02880185 10387 20285 403980240
KJWY 180535Z AUTO 18005KT 10SM CLR 29/18 A2998 RMK AO2 T02880181
KJWY 180515Z AUTO 17006KT 10SM CLR 29/18 A2999 RMK AO2 T02900176
KJWY 180455Z AUTO 16004KT 10SM CLR 30/17 A2999 RMK AO2 T02950173
KJWY 180435Z AUTO 16004KT 10SM CLR 30/17 A2999 RMK AO2 T02970167
KJWY 180415Z AUTO 16005KT 10SM CLR 30/16 A2999 RMK AO2 T03040161
KJWY 180355Z AUTO 16006KT 10SM CLR 31/15 A2998 RMK AO2 T03110153
KJWY 180335Z AUTO 17008KT 10SM CLR 32/15 A2998 RMK AO2 T03170150
KJWY 180315Z AUTO 18009KT 7SM CLR 32/15 A2997 RMK AO2 T03210147
KJWY 180255Z AUTO 17008KT 7SM CLR 32/14 A2996 RMK AO2 T03200139
KJWY 180235Z AUTO 16005KT 7SM CLR 32/13 A2995 RMK AO2 T03180132
KJWY 180215Z AUTO 15004KT 7SM CLR 32/13 A2995 RMK AO2 T03200133
KJWY 180155Z AUTO 16004KT 10SM CLR 33/13 A2995 RMK AO2 T03250133
KJWY 180135Z AUTO 16003KT 7SM CLR 34/14 A2995 RMK AO2 T03360135
KJWY 180115Z AUTO 16003KT 7SM CLR 35/14 A2995 RMK AO2 T03460139
KJWY 180055Z AUTO 17003KT 7SM CLR 36/14 A2995 RMK AO2 T03640135
KJWY 180035Z AUTO 17004KT 7SM CLR 38/13 A2994 RMK AO2 T03770132
KJWY 180015Z AUTO 21004KT 7SM CLR 38/14 A2994 RMK AO2 T03820135
KJWY 172355Z AUTO 18003KT 7SM CLR 39/13 A2994 RMK AO2 T03870129 10398 20365
KJWY 172335Z AUTO 22004KT 7SM CLR 39/13 A2994 RMK AO2 T03910131
KJWY 172315Z AUTO 23006KT 7SM CLR 40/14 A2995 RMK AO2 T03950136
KJWY 172255Z AUTO 18007KT 7SM CLR 40/14 A2995 RMK AO2 T03950135
KJWY 172235Z AUTO 00000KT 7SM CLR 39/13 A2995 RMK AO2 T03940134
KJWY 172215Z AUTO 13004KT 7SM CLR 39/14 A2996 RMK AO2 T03930139
KJWY 172155Z AUTO 21007KT 7SM CLR 40/14 A2996 RMK AO2 T03960141
KJWY 172135Z AUTO 18004G09KT 7SM CLR 40/14 A2996 RMK AO2 T03950143
KJWY 172115Z AUTO 00000KT 7SM SCT100 39/14 A2997 RMK AO2 T03940144
KJWY 172055Z AUTO 31003KT 7SM CLR 39/15 A2998 RMK AO2 T03920152
KJWY 172035Z AUTO 19008G14KT 7SM CLR 40/16 A2998 RMK AO2 T03950156
KJWY 172015Z AUTO 27007KT 7SM CLR 39/16 A2999 RMK AO2 T03930158
KJWY 171955Z AUTO 26003KT 7SM CLR 39/15 A3000 RMK AO2 T03890145
KJWY 171935Z AUTO 18003KT 7SM CLR 39/15 A3001 RMK AO2 T03860153
KJWY 171915Z AUTO 21005KT 7SM CLR 38/16 A3002 RMK AO2 T03790163
KJWY 171855Z AUTO 21004KT 7SM CLR 38/17 A3002 RMK AO2 T03760167
KJWY 171835Z AUTO 24005KT 7SM CLR 38/18 A3003 RMK AO2 T03770178
KJWY 171815Z AUTO 19005KT 7SM CLR 37/17 A3004 RMK AO2 T03680167
KJWY 171755Z AUTO 22009KT 7SM CLR 37/17 A3005 RMK AO2 T03650173 10368 20240
KJWY 171735Z AUTO 26007KT 7SM CLR 36/17 A3006 RMK AO2 T03620172
KJWY 171715Z AUTO 23006KT 7SM CLR 36/18 A3006 RMK AO2 T03560176
KJWY 171655Z AUTO 22009G14KT 7SM CLR 35/18 A3006 RMK AO2 T03490180
KJWY 171635Z AUTO 25009KT 7SM CLR 34/18 A3007 RMK AO2 T03440183
KJWY 171615Z AUTO 21012KT 7SM CLR 34/19 A3006 RMK AO2 T03380186
KJWY 171555Z AUTO 22011G15KT 7SM CLR 33/20 A3007 RMK AO2 T03310195
KJWY 171535Z AUTO 23010G15KT 7SM CLR 32/20 A3007 RMK AO2 T03240202
KJWY 171515Z AUTO 23009G14KT 7SM CLR 32/20 A3007 RMK AO2 T03170204
KJWY 171455Z AUTO 22010KT 7SM CLR 31/21 A3007 RMK AO2 T03060210
KJWY 171435Z AUTO 22009G14KT 7SM CLR 30/21 A3006 RMK AO2 T02980210
KJWY 171415Z AUTO 21009KT 7SM CLR 29/21 A3006 RMK AO2 T02940213